sensor_id;sensor_type;location;lat;lon;timestamp;P1;durP1;ratioP1;P2;durP2;ratioP2
31132;SDS011;17779;50.942;4.026;2023-03-31T00:01:58;24.55;;;3.72;;
31132;SDS011;17779;50.942;4.026;2023-03-31T00:04:26;22.95;;;4.15;;
31132;SDS011;17779;50.942;4.026;2023-03-31T00:06:52;21.17;;;4.15;;
31132;SDS011;17779;50.942;4.026;2023-03-31T00:09:18;27.20;;;4.05;;
31132;SDS011;17779;50.942;4.026;2023-03-31T00:11:49;19.08;;;3.15;;
31132;SDS011;17779;50.942;4.026;2023-03-31T00:14:16;21.98;;;4.57;;
31132;SDS011;17779;50.942;4.026;2023-03-31T00:16:43;27.75;;;4.32;;
31132;SDS011;17779;50.942;4.026;2023-03-31T00:19:09;19.35;;;3.63;;
31132;SDS011;17779;50.942;4.026;2023-03-31T00:21:42;23.88;;;3.25;;
31132;SDS011;17779;50.942;4.026;2023-03-31T00:24:10;13.15;;;2.70;;
31132;SDS011;17779;50.942;4.026;2023-03-31T00:26:36;25.25;;;3.50;;
31132;SDS011;17779;50.942;4.026;2023-03-31T00:31:30;25.10;;;3.78;;
31132;SDS011;17779;50.942;4.026;2023-03-31T00:36:22;20.85;;;3.50;;
31132;SDS011;17779;50.942;4.026;2023-03-31T00:38:56;21.20;;;3.28;;
31132;SDS011;17779;50.942;4.026;2023-03-31T00:41:24;23.88;;;3.97;;
31132;SDS011;17779;50.942;4.026;2023-03-31T00:46:34;27.60;;;4.28;;
31132;SDS011;17779;50.942;4.026;2023-03-31T00:49:05;17.02;;;3.38;;
31132;SDS011;17779;50.942;4.026;2023-03-31T00:51:38;15.13;;;3.67;;
31132;SDS011;17779;50.942;4.026;2023-03-31T00:56:32;15.07;;;3.92;;
31132;SDS011;17779;50.942;4.026;2023-03-31T00:59:01;9.07;;;2.03;;
31132;SDS011;17779;50.942;4.026;2023-03-31T01:01:31;17.27;;;3.90;;
31132;SDS011;17779;50.942;4.026;2023-03-31T01:04:00;17.30;;;2.80;;
31132;SDS011;17779;50.942;4.026;2023-03-31T01:06:27;16.90;;;3.72;;
31132;SDS011;17779;50.942;4.026;2023-03-31T01:08:55;14.32;;;2.63;;
31132;SDS011;17779;50.942;4.026;2023-03-31T01:11:22;22.45;;;3.22;;
31132;SDS011;17779;50.942;4.026;2023-03-31T01:13:52;23.02;;;3.78;;
31132;SDS011;17779;50.942;4.026;2023-03-31T01:16:20;23.25;;;3.05;;
31132;SDS011;17779;50.942;4.026;2023-03-31T01:18:46;20.38;;;3.15;;
31132;SDS011;17779;50.942;4.026;2023-03-31T01:43:43;24.70;;;3.58;;
31132;SDS011;17779;50.942;4.026;2023-03-31T01:46:26;15.57;;;2.47;;
31132;SDS011;17779;50.942;4.026;2023-03-31T02:02:41;13.82;;;2.88;;
31132;SDS011;17779;50.942;4.026;2023-03-31T02:05:09;17.35;;;3.40;;
31132;SDS011;17779;50.942;4.026;2023-03-31T02:07:43;11.20;;;2.70;;
31132;SDS011;17779;50.942;4.026;2023-03-31T02:10:14;20.17;;;4.63;;
31132;SDS011;17779;50.942;4.026;2023-03-31T02:12:42;17.00;;;4.70;;
31132;SDS011;17779;50.942;4.026;2023-03-31T02:15:10;19.30;;;5.18;;
31132;SDS011;17779;50.942;4.026;2023-03-31T02:17:48;21.77;;;5.60;;
31132;SDS011;17779;50.942;4.026;2023-03-31T02:20:18;27.48;;;8.00;;
31132;SDS011;17779;50.942;4.026;2023-03-31T02:22:47;22.38;;;7.20;;
31132;SDS011;17779;50.942;4.026;2023-03-31T02:25:16;24.23;;;7.55;;
31132;SDS011;17779;50.942;4.026;2023-03-31T02:27:51;20.30;;;6.82;;
31132;SDS011;17779;50.942;4.026;2023-03-31T02:30:25;25.98;;;8.55;;
31132;SDS011;17779;50.942;4.026;2023-03-31T02:32:57;28.63;;;8.82;;
31132;SDS011;17779;50.942;4.026;2023-03-31T02:35:24;29.70;;;7.28;;
31132;SDS011;17779;50.942;4.026;2023-03-31T02:37:50;34.65;;;7.78;;
31132;SDS011;17779;50.942;4.026;2023-03-31T02:40:17;10.48;;;3.20;;
31132;SDS011;17779;50.942;4.026;2023-03-31T02:42:45;16.83;;;3.33;;
31132;SDS011;17779;50.942;4.026;2023-03-31T02:48:01;23.38;;;4.40;;
31132;SDS011;17779;50.942;4.026;2023-03-31T02:50:29;26.48;;;3.92;;
31132;SDS011;17779;50.942;4.026;2023-03-31T02:53:16;24.77;;;4.05;;
31132;SDS011;17779;50.942;4.026;2023-03-31T02:58:50;18.55;;;3.35;;
31132;SDS011;17779;50.942;4.026;2023-03-31T03:16:07;19.75;;;3.45;;
31132;SDS011;17779;50.942;4.026;2023-03-31T03:18:11;17.00;;;3.17;;
31132;SDS011;17779;50.942;4.026;2023-03-31T03:20:38;20.58;;;2.90;;
31132;SDS011;17779;50.942;4.026;2023-03-31T03:23:06;9.40;;;2.42;;
31132;SDS011;17779;50.942;4.026;2023-03-31T03:25:32;13.65;;;2.22;;
31132;SDS011;17779;50.942;4.026;2023-03-31T03:27:58;12.32;;;2.03;;
31132;SDS011;17779;50.942;4.026;2023-03-31T03:30:24;10.60;;;2.20;;
31132;SDS011;17779;50.942;4.026;2023-03-31T03:32:50;5.22;;;1.38;;
31132;SDS011;17779;50.942;4.026;2023-03-31T03:35:15;6.45;;;1.33;;
31132;SDS011;17779;50.942;4.026;2023-03-31T03:37:41;7.47;;;1.52;;
31132;SDS011;17779;50.942;4.026;2023-03-31T03:40:07;3.40;;;1.02;;
31132;SDS011;17779;50.942;4.026;2023-03-31T03:42:34;5.55;;;1.23;;
31132;SDS011;17779;50.942;4.026;2023-03-31T03:45:00;3.58;;;0.95;;
31132;SDS011;17779;50.942;4.026;2023-03-31T03:49:52;7.15;;;1.10;;
31132;SDS011;17779;50.942;4.026;2023-03-31T03:52:18;6.78;;;1.40;;
31132;SDS011;17779;50.942;4.026;2023-03-31T03:54:45;6.07;;;1.40;;
31132;SDS011;17779;50.942;4.026;2023-03-31T03:57:11;10.35;;;1.52;;
31132;SDS011;17779;50.942;4.026;2023-03-31T03:59:36;6.00;;;1.10;;
31132;SDS011;17779;50.942;4.026;2023-03-31T04:02:02;5.78;;;1.30;;
31132;SDS011;17779;50.942;4.026;2023-03-31T04:04:28;7.18;;;1.52;;
31132;SDS011;17779;50.942;4.026;2023-03-31T04:06:54;4.53;;;1.48;;
31132;SDS011;17779;50.942;4.026;2023-03-31T04:09:19;7.25;;;1.58;;
31132;SDS011;17779;50.942;4.026;2023-03-31T04:11:45;5.78;;;1.23;;
31132;SDS011;17779;50.942;4.026;2023-03-31T04:14:11;5.88;;;1.15;;
31132;SDS011;17779;50.942;4.026;2023-03-31T04:16:37;4.70;;;1.05;;
31132;SDS011;17779;50.942;4.026;2023-03-31T04:19:04;5.90;;;1.23;;
31132;SDS011;17779;50.942;4.026;2023-03-31T04:23:59;3.33;;;1.10;;
31132;SDS011;17779;50.942;4.026;2023-03-31T04:29:11;3.97;;;1.20;;
31132;SDS011;17779;50.942;4.026;2023-03-31T04:31:38;8.73;;;1.65;;
31132;SDS011;17779;50.942;4.026;2023-03-31T04:34:08;7.93;;;1.88;;
31132;SDS011;17779;50.942;4.026;2023-03-31T04:36:38;6.50;;;1.10;;
31132;SDS011;17779;50.942;4.026;2023-03-31T04:39:07;4.55;;;1.30;;
31132;SDS011;17779;50.942;4.026;2023-03-31T04:41:36;7.70;;;1.33;;
31132;SDS011;17779;50.942;4.026;2023-03-31T04:44:02;11.00;;;1.58;;
31132;SDS011;17779;50.942;4.026;2023-03-31T04:46:28;7.88;;;1.60;;
31132;SDS011;17779;50.942;4.026;2023-03-31T04:48:54;12.32;;;2.15;;
31132;SDS011;17779;50.942;4.026;2023-03-31T04:51:21;9.77;;;1.45;;
31132;SDS011;17779;50.942;4.026;2023-03-31T04:53:47;6.03;;;2.00;;
31132;SDS011;17779;50.942;4.026;2023-03-31T04:56:13;15.77;;;2.75;;
31132;SDS011;17779;50.942;4.026;2023-03-31T04:58:39;11.10;;;2.00;;
31132;SDS011;17779;50.942;4.026;2023-03-31T05:01:05;14.52;;;2.03;;
31132;SDS011;17779;50.942;4.026;2023-03-31T05:03:31;18.52;;;2.45;;
31132;SDS011;17779;50.942;4.026;2023-03-31T05:05:57;14.70;;;3.55;;
31132;SDS011;17779;50.942;4.026;2023-03-31T05:08:23;18.42;;;3.90;;
31132;SDS011;17779;50.942;4.026;2023-03-31T05:10:51;14.25;;;2.47;;
31132;SDS011;17779;50.942;4.026;2023-03-31T05:15:43;14.93;;;2.70;;
31132;SDS011;17779;50.942;4.026;2023-03-31T05:18:14;11.35;;;3.08;;
31132;SDS011;17779;50.942;4.026;2023-03-31T05:20:40;17.85;;;3.03;;
31132;SDS011;17779;50.942;4.026;2023-03-31T05:23:06;19.90;;;2.92;;
31132;SDS011;17779;50.942;4.026;2023-03-31T05:25:32;15.00;;;3.10;;
31132;SDS011;17779;50.942;4.026;2023-03-31T05:27:58;21.17;;;4.05;;
31132;SDS011;17779;50.942;4.026;2023-03-31T05:30:25;17.48;;;2.85;;
31132;SDS011;17779;50.942;4.026;2023-03-31T05:32:51;19.95;;;3.15;;
31132;SDS011;17779;50.942;4.026;2023-03-31T05:35:17;21.30;;;4.53;;
31132;SDS011;17779;50.942;4.026;2023-03-31T05:37:43;19.50;;;3.22;;
31132;SDS011;17779;50.942;4.026;2023-03-31T05:40:09;14.77;;;3.15;;
31132;SDS011;17779;50.942;4.026;2023-03-31T05:45:01;16.13;;;2.97;;
31132;SDS011;17779;50.942;4.026;2023-03-31T05:47:27;14.15;;;2.92;;
31132;SDS011;17779;50.942;4.026;2023-03-31T05:49:53;13.07;;;2.75;;
31132;SDS011;17779;50.942;4.026;2023-03-31T05:52:19;13.00;;;3.88;;
31132;SDS011;17779;50.942;4.026;2023-03-31T05:54:44;17.25;;;3.28;;
31132;SDS011;17779;50.942;4.026;2023-03-31T05:57:10;16.25;;;2.97;;
31132;SDS011;17779;50.942;4.026;2023-03-31T05:59:36;15.20;;;4.00;;
31132;SDS011;17779;50.942;4.026;2023-03-31T06:02:02;19.02;;;3.25;;
31132;SDS011;17779;50.942;4.026;2023-03-31T06:04:29;28.58;;;4.32;;
31132;SDS011;17779;50.942;4.026;2023-03-31T06:06:57;18.48;;;3.50;;
31132;SDS011;17779;50.942;4.026;2023-03-31T06:09:24;23.88;;;4.30;;
31132;SDS011;17779;50.942;4.026;2023-03-31T06:11:50;22.35;;;3.45;;
31132;SDS011;17779;50.942;4.026;2023-03-31T06:14:16;20.73;;;3.88;;
31132;SDS011;17779;50.942;4.026;2023-03-31T06:16:42;18.75;;;4.03;;
31132;SDS011;17779;50.942;4.026;2023-03-31T06:19:08;17.50;;;3.88;;
31132;SDS011;17779;50.942;4.026;2023-03-31T06:21:33;22.02;;;3.90;;
31132;SDS011;17779;50.942;4.026;2023-03-31T06:24:00;17.33;;;3.53;;
31132;SDS011;17779;50.942;4.026;2023-03-31T06:26:27;18.73;;;3.88;;
31132;SDS011;17779;50.942;4.026;2023-03-31T06:28:53;20.25;;;3.42;;
31132;SDS011;17779;50.942;4.026;2023-03-31T06:31:20;22.55;;;3.95;;
31132;SDS011;17779;50.942;4.026;2023-03-31T06:33:47;20.30;;;3.58;;
31132;SDS011;17779;50.942;4.026;2023-03-31T06:36:14;20.13;;;3.70;;
31132;SDS011;17779;50.942;4.026;2023-03-31T06:38:43;22.15;;;3.70;;
31132;SDS011;17779;50.942;4.026;2023-03-31T06:41:10;24.88;;;4.53;;
31132;SDS011;17779;50.942;4.026;2023-03-31T06:43:38;18.30;;;4.00;;
31132;SDS011;17779;50.942;4.026;2023-03-31T06:46:04;12.68;;;3.35;;
31132;SDS011;17779;50.942;4.026;2023-03-31T06:50:58;17.73;;;4.00;;
31132;SDS011;17779;50.942;4.026;2023-03-31T06:53:26;14.63;;;3.50;;
31132;SDS011;17779;50.942;4.026;2023-03-31T06:55:52;23.35;;;3.67;;
31132;SDS011;17779;50.942;4.026;2023-03-31T06:58:18;19.08;;;3.78;;
31132;SDS011;17779;50.942;4.026;2023-03-31T07:00:45;27.08;;;4.18;;
31132;SDS011;17779;50.942;4.026;2023-03-31T07:03:12;22.20;;;4.35;;
31132;SDS011;17779;50.942;4.026;2023-03-31T07:05:46;24.45;;;4.10;;
31132;SDS011;17779;50.942;4.026;2023-03-31T07:08:13;21.13;;;3.72;;
31132;SDS011;17779;50.942;4.026;2023-03-31T07:10:41;28.15;;;4.65;;
31132;SDS011;17779;50.942;4.026;2023-03-31T07:15:33;26.55;;;4.60;;
31132;SDS011;17779;50.942;4.026;2023-03-31T07:17:59;18.52;;;3.75;;
31132;SDS011;17779;50.942;4.026;2023-03-31T07:20:28;24.58;;;4.57;;
31132;SDS011;17779;50.942;4.026;2023-03-31T07:22:54;28.80;;;3.45;;
31132;SDS011;17779;50.942;4.026;2023-03-31T07:25:20;30.95;;;4.07;;
31132;SDS011;17779;50.942;4.026;2023-03-31T07:27:46;23.38;;;4.28;;
31132;SDS011;17779;50.942;4.026;2023-03-31T07:30:13;21.42;;;4.57;;
31132;SDS011;17779;50.942;4.026;2023-03-31T07:32:40;21.33;;;4.65;;
31132;SDS011;17779;50.942;4.026;2023-03-31T07:35:07;21.48;;;4.38;;
31132;SDS011;17779;50.942;4.026;2023-03-31T07:37:36;27.20;;;5.07;;
31132;SDS011;17779;50.942;4.026;2023-03-31T07:40:04;25.23;;;4.95;;
31132;SDS011;17779;50.942;4.026;2023-03-31T07:42:31;18.33;;;3.50;;
31132;SDS011;17779;50.942;4.026;2023-03-31T07:47:22;21.92;;;4.25;;
31132;SDS011;17779;50.942;4.026;2023-03-31T07:49:49;29.98;;;5.47;;
31132;SDS011;17779;50.942;4.026;2023-03-31T07:52:15;34.05;;;5.18;;
31132;SDS011;17779;50.942;4.026;2023-03-31T07:54:42;26.83;;;4.57;;
31132;SDS011;17779;50.942;4.026;2023-03-31T07:57:09;26.67;;;5.85;;
31132;SDS011;17779;50.942;4.026;2023-03-31T07:59:34;18.95;;;3.53;;
31132;SDS011;17779;50.942;4.026;2023-03-31T08:02:00;26.80;;;4.45;;
31132;SDS011;17779;50.942;4.026;2023-03-31T08:04:26;29.90;;;4.72;;
31132;SDS011;17779;50.942;4.026;2023-03-31T08:06:52;24.88;;;4.78;;
31132;SDS011;17779;50.942;4.026;2023-03-31T08:09:18;26.83;;;4.57;;
31132;SDS011;17779;50.942;4.026;2023-03-31T08:11:46;28.83;;;4.13;;
31132;SDS011;17779;50.942;4.026;2023-03-31T08:14:12;24.30;;;5.28;;
31132;SDS011;17779;50.942;4.026;2023-03-31T08:16:38;34.45;;;5.00;;
31132;SDS011;17779;50.942;4.026;2023-03-31T08:21:30;24.33;;;4.75;;
31132;SDS011;17779;50.942;4.026;2023-03-31T08:23:56;24.67;;;4.07;;
31132;SDS011;17779;50.942;4.026;2023-03-31T08:28:49;27.98;;;4.70;;
31132;SDS011;17779;50.942;4.026;2023-03-31T08:31:16;22.70;;;5.20;;
31132;SDS011;17779;50.942;4.026;2023-03-31T08:33:43;21.27;;;4.50;;
31132;SDS011;17779;50.942;4.026;2023-03-31T08:36:09;26.52;;;5.40;;
31132;SDS011;17779;50.942;4.026;2023-03-31T08:38:40;18.95;;;4.35;;
31132;SDS011;17779;50.942;4.026;2023-03-31T08:41:11;27.35;;;5.57;;
31132;SDS011;17779;50.942;4.026;2023-03-31T08:43:51;19.63;;;3.55;;
31132;SDS011;17779;50.942;4.026;2023-03-31T08:46:20;21.13;;;4.13;;
31132;SDS011;17779;50.942;4.026;2023-03-31T08:48:50;29.05;;;5.30;;
31132;SDS011;17779;50.942;4.026;2023-03-31T08:51:40;25.77;;;4.90;;
31132;SDS011;17779;50.942;4.026;2023-03-31T08:57:11;26.42;;;4.10;;
31132;SDS011;17779;50.942;4.026;2023-03-31T08:59:45;23.52;;;3.85;;
31132;SDS011;17779;50.942;4.026;2023-03-31T09:10:34;14.63;;;3.08;;
31132;SDS011;17779;50.942;4.026;2023-03-31T09:16:01;25.98;;;4.75;;
31132;SDS011;17779;50.942;4.026;2023-03-31T09:18:41;24.85;;;4.38;;
31132;SDS011;17779;50.942;4.026;2023-03-31T09:23:50;21.05;;;3.85;;
31132;SDS011;17779;50.942;4.026;2023-03-31T09:26:40;21.67;;;3.92;;
31132;SDS011;17779;50.942;4.026;2023-03-31T09:32:16;27.10;;;5.37;;
31132;SDS011;17779;50.942;4.026;2023-03-31T09:34:44;27.17;;;6.13;;
31132;SDS011;17779;50.942;4.026;2023-03-31T09:37:12;17.88;;;3.85;;
31132;SDS011;17779;50.942;4.026;2023-03-31T09:39:38;32.75;;;5.72;;
31132;SDS011;17779;50.942;4.026;2023-03-31T09:42:05;26.42;;;4.97;;
31132;SDS011;17779;50.942;4.026;2023-03-31T09:46:57;25.55;;;4.75;;
31132;SDS011;17779;50.942;4.026;2023-03-31T09:49:26;31.85;;;5.63;;
31132;SDS011;17779;50.942;4.026;2023-03-31T09:52:42;30.30;;;5.72;;
31132;SDS011;17779;50.942;4.026;2023-03-31T09:54:52;23.63;;;4.72;;
31132;SDS011;17779;50.942;4.026;2023-03-31T09:57:25;19.23;;;3.58;;
31132;SDS011;17779;50.942;4.026;2023-03-31T09:59:52;30.58;;;5.72;;
31132;SDS011;17779;50.942;4.026;2023-03-31T10:04:57;26.40;;;4.07;;
31132;SDS011;17779;50.942;4.026;2023-03-31T10:07:23;20.85;;;4.07;;
31132;SDS011;17779;50.942;4.026;2023-03-31T10:09:50;27.55;;;5.25;;
31132;SDS011;17779;50.942;4.026;2023-03-31T10:12:21;34.63;;;6.53;;
31132;SDS011;17779;50.942;4.026;2023-03-31T10:14:51;26.67;;;4.88;;
31132;SDS011;17779;50.942;4.026;2023-03-31T10:17:22;25.88;;;5.03;;
31132;SDS011;17779;50.942;4.026;2023-03-31T10:19:52;16.10;;;3.45;;
31132;SDS011;17779;50.942;4.026;2023-03-31T10:24:47;23.38;;;4.40;;
31132;SDS011;17779;50.942;4.026;2023-03-31T10:27:27;31.13;;;5.07;;
31132;SDS011;17779;50.942;4.026;2023-03-31T10:29:58;25.75;;;4.68;;
31132;SDS011;17779;50.942;4.026;2023-03-31T10:32:41;24.88;;;5.18;;
31132;SDS011;17779;50.942;4.026;2023-03-31T10:37:57;29.52;;;4.85;;
31132;SDS011;17779;50.942;4.026;2023-03-31T10:40:28;30.40;;;4.80;;
31132;SDS011;17779;50.942;4.026;2023-03-31T10:43:13;13.25;;;2.95;;
31132;SDS011;17779;50.942;4.026;2023-03-31T10:45:48;20.52;;;3.38;;
31132;SDS011;17779;50.942;4.026;2023-03-31T10:48:17;14.60;;;3.05;;
31132;SDS011;17779;50.942;4.026;2023-03-31T10:50:47;15.57;;;3.53;;
31132;SDS011;17779;50.942;4.026;2023-03-31T10:53:14;14.48;;;3.20;;
31132;SDS011;17779;50.942;4.026;2023-03-31T10:56:05;18.10;;;4.10;;
31132;SDS011;17779;50.942;4.026;2023-03-31T10:58:37;16.05;;;3.05;;
31132;SDS011;17779;50.942;4.026;2023-03-31T11:03:49;20.42;;;3.75;;
31132;SDS011;17779;50.942;4.026;2023-03-31T11:06:43;25.30;;;3.88;;
31132;SDS011;17779;50.942;4.026;2023-03-31T11:23:28;19.65;;;3.58;;
31132;SDS011;17779;50.942;4.026;2023-03-31T11:25:33;27.05;;;4.13;;
31132;SDS011;17779;50.942;4.026;2023-03-31T11:31:03;21.05;;;3.38;;
31132;SDS011;17779;50.942;4.026;2023-03-31T11:36:43;13.27;;;3.03;;
31132;SDS011;17779;50.942;4.026;2023-03-31T11:41:56;17.05;;;3.15;;
31132;SDS011;17779;50.942;4.026;2023-03-31T11:44:26;14.20;;;2.17;;
31132;SDS011;17779;50.942;4.026;2023-03-31T11:47:03;21.10;;;3.53;;
31132;SDS011;17779;50.942;4.026;2023-03-31T11:52:34;17.65;;;3.65;;
31132;SDS011;17779;50.942;4.026;2023-03-31T11:55:13;11.70;;;3.20;;
31132;SDS011;17779;50.942;4.026;2023-03-31T11:57:43;18.45;;;3.00;;
31132;SDS011;17779;50.942;4.026;2023-03-31T12:00:18;21.92;;;2.90;;
31132;SDS011;17779;50.942;4.026;2023-03-31T12:02:53;17.45;;;2.63;;
31132;SDS011;17779;50.942;4.026;2023-03-31T12:05:36;10.88;;;2.45;;
31132;SDS011;17779;50.942;4.026;2023-03-31T12:08:14;16.23;;;3.08;;
31132;SDS011;17779;50.942;4.026;2023-03-31T12:10:58;12.65;;;2.38;;
31132;SDS011;17779;50.942;4.026;2023-03-31T12:14:30;5.45;;;1.60;;
31132;SDS011;17779;50.942;4.026;2023-03-31T12:16:42;7.95;;;1.65;;
31132;SDS011;17779;50.942;4.026;2023-03-31T12:19:25;7.85;;;1.40;;
31132;SDS011;17779;50.942;4.026;2023-03-31T12:21:54;11.90;;;1.52;;
31132;SDS011;17779;50.942;4.026;2023-03-31T12:24:24;8.95;;;2.00;;
31132;SDS011;17779;50.942;4.026;2023-03-31T12:27:04;10.32;;;2.67;;
31132;SDS011;17779;50.942;4.026;2023-03-31T12:29:59;13.10;;;2.47;;
31132;SDS011;17779;50.942;4.026;2023-03-31T12:32:27;15.38;;;2.58;;
31132;SDS011;17779;50.942;4.026;2023-03-31T12:35:05;17.38;;;3.17;;
31132;SDS011;17779;50.942;4.026;2023-03-31T12:40:55;11.77;;;2.13;;
31132;SDS011;17779;50.942;4.026;2023-03-31T12:46:35;8.27;;;2.10;;
31132;SDS011;17779;50.942;4.026;2023-03-31T12:49:20;11.18;;;2.03;;
31132;SDS011;17779;50.942;4.026;2023-03-31T12:57:20;9.32;;;1.83;;
31132;SDS011;17779;50.942;4.026;2023-03-31T13:02:41;7.95;;;1.63;;
31132;SDS011;17779;50.942;4.026;2023-03-31T13:08:05;8.25;;;2.00;;
31132;SDS011;17779;50.942;4.026;2023-03-31T13:10:32;5.68;;;1.23;;
31132;SDS011;17779;50.942;4.026;2023-03-31T13:13:18;6.13;;;1.50;;
31132;SDS011;17779;50.942;4.026;2023-03-31T13:15:54;6.28;;;1.20;;
31132;SDS011;17779;50.942;4.026;2023-03-31T13:18:22;4.53;;;1.10;;
31132;SDS011;17779;50.942;4.026;2023-03-31T13:20:58;3.90;;;1.10;;
31132;SDS011;17779;50.942;4.026;2023-03-31T13:23:25;4.53;;;0.90;;
31132;SDS011;17779;50.942;4.026;2023-03-31T13:25:58;4.22;;;0.80;;
31132;SDS011;17779;50.942;4.026;2023-03-31T13:28:25;3.80;;;0.70;;
31132;SDS011;17779;50.942;4.026;2023-03-31T13:30:59;2.65;;;0.90;;
31132;SDS011;17779;50.942;4.026;2023-03-31T13:52:43;1.30;;;0.60;;
31132;SDS011;17779;50.942;4.026;2023-03-31T13:55:31;4.07;;;1.00;;
31132;SDS011;17779;50.942;4.026;2023-03-31T13:58:31;1.27;;;0.70;;
31132;SDS011;17779;50.942;4.026;2023-03-31T14:06:47;2.47;;;1.00;;
31132;SDS011;17779;50.942;4.026;2023-03-31T14:09:30;4.03;;;1.10;;
31132;SDS011;17779;50.942;4.026;2023-03-31T14:11:59;1.83;;;0.68;;
31132;SDS011;17779;50.942;4.026;2023-03-31T14:14:25;3.42;;;0.70;;
31132;SDS011;17779;50.942;4.026;2023-03-31T14:16:56;3.35;;;1.02;;
31132;SDS011;17779;50.942;4.026;2023-03-31T14:28:18;1.90;;;0.90;;
31132;SDS011;17779;50.942;4.026;2023-03-31T14:31:23;2.92;;;0.88;;
31132;SDS011;17779;50.942;4.026;2023-03-31T14:34:17;3.72;;;1.10;;
31132;SDS011;17779;50.942;4.026;2023-03-31T14:37:04;1.92;;;0.70;;
31132;SDS011;17779;50.942;4.026;2023-03-31T14:39:42;4.05;;;1.00;;
31132;SDS011;17779;50.942;4.026;2023-03-31T14:42:12;6.88;;;1.33;;
31132;SDS011;17779;50.942;4.026;2023-03-31T14:44:40;3.88;;;0.85;;
31132;SDS011;17779;50.942;4.026;2023-03-31T14:47:20;5.75;;;1.30;;
31132;SDS011;17779;50.942;4.026;2023-03-31T14:50:04;3.28;;;1.20;;
31132;SDS011;17779;50.942;4.026;2023-03-31T14:52:37;5.78;;;1.45;;
31132;SDS011;17779;50.942;4.026;2023-03-31T14:55:03;2.97;;;1.15;;
31132;SDS011;17779;50.942;4.026;2023-03-31T14:57:33;2.92;;;1.10;;
31132;SDS011;17779;50.942;4.026;2023-03-31T15:00:05;4.97;;;0.68;;
31132;SDS011;17779;50.942;4.026;2023-03-31T15:02:34;1.58;;;0.88;;
31132;SDS011;17779;50.942;4.026;2023-03-31T15:05:04;1.90;;;0.60;;
31132;SDS011;17779;50.942;4.026;2023-03-31T15:07:40;4.65;;;0.90;;
31132;SDS011;17779;50.942;4.026;2023-03-31T15:10:06;12.15;;;2.05;;
31132;SDS011;17779;50.942;4.026;2023-03-31T15:12:33;6.95;;;1.77;;
31132;SDS011;17779;50.942;4.026;2023-03-31T15:15:03;12.65;;;1.85;;
31132;SDS011;17779;50.942;4.026;2023-03-31T15:17:34;7.65;;;1.63;;
31132;SDS011;17779;50.942;4.026;2023-03-31T15:22:57;10.88;;;2.85;;
31132;SDS011;17779;50.942;4.026;2023-03-31T15:25:25;10.02;;;1.85;;
31132;SDS011;17779;50.942;4.026;2023-03-31T15:28:04;11.85;;;2.40;;
31132;SDS011;17779;50.942;4.026;2023-03-31T15:30:31;11.90;;;2.03;;
31132;SDS011;17779;50.942;4.026;2023-03-31T15:35:31;17.00;;;2.70;;
31132;SDS011;17779;50.942;4.026;2023-03-31T15:37:59;11.95;;;2.88;;
31132;SDS011;17779;50.942;4.026;2023-03-31T15:42:56;14.45;;;4.72;;
31132;SDS011;17779;50.942;4.026;2023-03-31T15:45:43;11.32;;;2.30;;
31132;SDS011;17779;50.942;4.026;2023-03-31T15:48:15;15.23;;;2.92;;
31132;SDS011;17779;50.942;4.026;2023-03-31T15:51:16;8.50;;;1.85;;
31132;SDS011;17779;50.942;4.026;2023-03-31T15:53:45;11.63;;;2.40;;
31132;SDS011;17779;50.942;4.026;2023-03-31T16:01:22;10.82;;;2.10;;
31132;SDS011;17779;50.942;4.026;2023-03-31T16:03:54;4.35;;;1.33;;
31132;SDS011;17779;50.942;4.026;2023-03-31T16:09:08;8.90;;;2.10;;
31132;SDS011;17779;50.942;4.026;2023-03-31T16:14:22;7.68;;;2.05;;
31132;SDS011;17779;50.942;4.026;2023-03-31T16:16:56;14.05;;;2.28;;
31132;SDS011;17779;50.942;4.026;2023-03-31T16:19:30;11.65;;;2.42;;
31132;SDS011;17779;50.942;4.026;2023-03-31T16:22:04;7.78;;;2.08;;
31132;SDS011;17779;50.942;4.026;2023-03-31T16:26:58;12.85;;;2.33;;
31132;SDS011;17779;50.942;4.026;2023-03-31T16:29:25;14.85;;;2.25;;
31132;SDS011;17779;50.942;4.026;2023-03-31T16:31:50;11.70;;;2.28;;
31132;SDS011;17779;50.942;4.026;2023-03-31T16:34:33;12.45;;;2.70;;
31132;SDS011;17779;50.942;4.026;2023-03-31T16:36:58;8.70;;;2.22;;
31132;SDS011;17779;50.942;4.026;2023-03-31T16:39:32;10.38;;;2.58;;
31132;SDS011;17779;50.942;4.026;2023-03-31T16:41:57;19.90;;;3.72;;
31132;SDS011;17779;50.942;4.026;2023-03-31T16:44:23;12.75;;;2.53;;
31132;SDS011;17779;50.942;4.026;2023-03-31T16:46:52;13.95;;;2.35;;
31132;SDS011;17779;50.942;4.026;2023-03-31T16:49:17;13.88;;;2.90;;
31132;SDS011;17779;50.942;4.026;2023-03-31T16:51:43;13.23;;;2.83;;
31132;SDS011;17779;50.942;4.026;2023-03-31T16:54:09;11.40;;;2.65;;
31132;SDS011;17779;50.942;4.026;2023-03-31T16:59:01;25.20;;;3.97;;
31132;SDS011;17779;50.942;4.026;2023-03-31T17:01:27;27.13;;;4.50;;
31132;SDS011;17779;50.942;4.026;2023-03-31T17:03:53;24.20;;;3.53;;
31132;SDS011;17779;50.942;4.026;2023-03-31T17:06:19;18.90;;;3.75;;
31132;SDS011;17779;50.942;4.026;2023-03-31T17:08:45;18.42;;;3.10;;
31132;SDS011;17779;50.942;4.026;2023-03-31T17:11:11;22.52;;;3.63;;
31132;SDS011;17779;50.942;4.026;2023-03-31T17:13:38;23.02;;;4.18;;
31132;SDS011;17779;50.942;4.026;2023-03-31T17:16:05;25.95;;;4.78;;
31132;SDS011;17779;50.942;4.026;2023-03-31T17:18:31;20.13;;;4.18;;
31132;SDS011;17779;50.942;4.026;2023-03-31T17:21:01;19.30;;;3.70;;
31132;SDS011;17779;50.942;4.026;2023-03-31T17:23:31;20.15;;;3.83;;
31132;SDS011;17779;50.942;4.026;2023-03-31T17:28:23;12.55;;;3.13;;
31132;SDS011;17779;50.942;4.026;2023-03-31T17:30:49;17.95;;;4.15;;
31132;SDS011;17779;50.942;4.026;2023-03-31T17:33:15;20.05;;;3.53;;
31132;SDS011;17779;50.942;4.026;2023-03-31T17:38:07;13.68;;;3.22;;
31132;SDS011;17779;50.942;4.026;2023-03-31T17:40:34;15.57;;;3.00;;
31132;SDS011;17779;50.942;4.026;2023-03-31T17:43:00;18.08;;;3.10;;
31132;SDS011;17779;50.942;4.026;2023-03-31T17:45:27;15.32;;;3.20;;
31132;SDS011;17779;50.942;4.026;2023-03-31T17:47:53;16.52;;;3.10;;
31132;SDS011;17779;50.942;4.026;2023-03-31T17:50:19;16.33;;;3.47;;
31132;SDS011;17779;50.942;4.026;2023-03-31T17:55:11;18.05;;;3.63;;
31132;SDS011;17779;50.942;4.026;2023-03-31T17:57:38;17.52;;;3.45;;
31132;SDS011;17779;50.942;4.026;2023-03-31T18:00:07;17.17;;;3.45;;
31132;SDS011;17779;50.942;4.026;2023-03-31T18:02:40;22.55;;;3.65;;
31132;SDS011;17779;50.942;4.026;2023-03-31T18:05:07;23.00;;;3.60;;
31132;SDS011;17779;50.942;4.026;2023-03-31T18:07:34;22.60;;;4.60;;
31132;SDS011;17779;50.942;4.026;2023-03-31T18:10:00;21.50;;;3.78;;
31132;SDS011;17779;50.942;4.026;2023-03-31T18:12:29;19.17;;;3.22;;
31132;SDS011;17779;50.942;4.026;2023-03-31T18:15:00;25.60;;;3.97;;
31132;SDS011;17779;50.942;4.026;2023-03-31T18:17:29;26.90;;;5.20;;
31132;SDS011;17779;50.942;4.026;2023-03-31T18:19:54;28.02;;;5.53;;
31132;SDS011;17779;50.942;4.026;2023-03-31T18:22:21;25.23;;;5.43;;
31132;SDS011;17779;50.942;4.026;2023-03-31T18:24:46;33.85;;;6.80;;
31132;SDS011;17779;50.942;4.026;2023-03-31T18:27:13;32.70;;;7.28;;
31132;SDS011;17779;50.942;4.026;2023-03-31T18:29:38;20.17;;;3.25;;
31132;SDS011;17779;50.942;4.026;2023-03-31T18:32:04;22.88;;;4.70;;
31132;SDS011;17779;50.942;4.026;2023-03-31T18:34:30;26.17;;;5.75;;
31132;SDS011;17779;50.942;4.026;2023-03-31T18:36:57;20.23;;;3.72;;
31132;SDS011;17779;50.942;4.026;2023-03-31T18:39:23;22.90;;;3.92;;
31132;SDS011;17779;50.942;4.026;2023-03-31T18:41:49;21.45;;;4.43;;
31132;SDS011;17779;50.942;4.026;2023-03-31T18:44:17;27.60;;;5.13;;
31132;SDS011;17779;50.942;4.026;2023-03-31T18:46:43;28.38;;;4.82;;